Time;durP1;ratioP1;P1;durP2;ratioP2;P2;SDS_P1;SDS_P2;PMS_P1;PMS_P2;Temp;Humidity;BMP_temperature;BMP_pressure;BME280_temperature;BME280_humidity;BME280_pressure;Samples;Min_cycle;Max_cycle;Signal;HPM_P1;HPM_P2
2021/12/24 00:00:12;;;;;;;37.20;20.70;;;;;;;1.98;100.00;101498.13;4995974;28;20042;-68
2021/12/24 00:02:58;;;;;;;38.33;21.10;;;;;;;1.50;100.00;101490.59;4997112;28;20042;-68
2021/12/24 00:05:44;;;;;;;37.95;21.60;;;;;;;1.61;100.00;101468.56;4995278;28;20113;-67
2021/12/24 00:08:31;;;;;;;36.28;20.48;;;;;;;1.86;100.00;101464.19;4996341;28;20482;-69
2021/12/24 00:11:17;;;;;;;35.80;20.00;;;;;;;1.56;100.00;101465.00;4995340;28;20371;-68
2021/12/24 00:14:06;;;;;;;37.95;21.38;;;;;;;1.58;100.00;101460.72;4981339;28;20034;-67
2021/12/24 00:16:55;;;;;;;39.75;22.08;;;;;;;2.08;100.00;101455.31;4996274;28;20041;-68
2021/12/24 00:19:59;;;;;;;38.75;21.88;;;;;;;1.60;100.00;101454.78;4982386;28;20026;-68
2021/12/24 00:35:15;;;;;;;36.63;20.55;;;;;;;2.52;100.00;101450.53;4994331;28;20522;-68
2021/12/24 00:38:05;;;;;;;35.88;20.73;;;;;;;1.78;100.00;101441.53;4995859;28;20030;-67
2021/12/24 00:40:51;;;;;;;35.70;20.38;;;;;;;1.92;100.00;101443.69;4981791;28;20105;-67
2021/12/24 00:43:36;;;;;;;35.15;20.38;;;;;;;2.67;100.00;101435.41;4995630;28;20096;-68
2021/12/24 00:46:22;;;;;;;38.20;20.73;;;;;;;2.27;100.00;101424.88;4995361;28;20037;-70
2021/12/24 00:49:08;;;;;;;28.52;17.83;;;;;;;1.73;100.00;101428.47;4994249;28;20023;-68
2021/12/24 00:52:06;;;;;;;33.92;19.75;;;;;;;1.95;100.00;101409.31;4996100;28;20443;-68
2021/12/24 00:55:06;;;;;;;36.70;20.23;;;;;;;2.29;100.00;101412.00;4994493;28;20030;-69
2021/12/24 00:57:55;;;;;;;34.38;19.80;;;;;;;2.03;100.00;101407.81;4993261;28;20162;-68
2021/12/24 01:00:40;;;;;;;32.30;19.15;;;;;;;2.19;100.00;101410.84;4995065;28;20022;-68
2021/12/24 01:03:27;;;;;;;36.40;19.33;;;;;;;2.50;100.00;101399.63;4981954;28;20038;-67
2021/12/24 01:06:14;;;;;;;29.15;17.52;;;;;;;2.49;100.00;101382.34;4995463;28;20058;-68
2021/12/24 01:09:00;;;;;;;31.08;18.02;;;;;;;2.49;100.00;101383.22;4994036;28;20026;-68
2021/12/24 01:11:46;;;;;;;27.15;16.48;;;;;;;2.37;100.00;101353.59;4994344;28;20395;-68
2021/12/24 01:14:31;;;;;;;26.10;15.85;;;;;;;1.25;100.00;101349.59;4992974;28;20033;-68
2021/12/24 01:17:42;;;;;;;27.48;15.93;;;;;;;1.69;100.00;101338.81;4995287;28;20023;-68
2021/12/24 01:20:37;;;;;;;27.50;16.35;;;;;;;2.18;100.00;101347.09;4995206;28;20427;-68
2021/12/24 01:26:13;;;;;;;32.00;18.08;;;;;;;2.38;100.00;101347.59;4994959;28;20109;-67
2021/12/24 01:38:08;;;;;;;32.67;19.50;;;;;;;2.05;100.00;101326.03;4995087;28;20101;-68
2021/12/24 01:43:42;;;;;;;35.35;20.27;;;;;;;1.88;100.00;101311.81;4993616;28;20352;-68
2021/12/24 01:46:28;;;;;;;37.08;20.38;;;;;;;1.78;100.00;101314.97;4993383;28;20049;-68
2021/12/24 01:49:14;;;;;;;33.47;19.60;;;;;;;2.26;100.00;101304.22;4995128;28;20035;-68
2021/12/24 01:52:02;;;;;;;38.00;20.00;;;;;;;2.28;100.00;101304.22;4966452;28;20367;-69
2021/12/24 01:54:48;;;;;;;33.55;19.40;;;;;;;1.69;100.00;101302.66;4994288;28;20474;-68
2021/12/24 01:57:36;;;;;;;35.40;20.52;;;;;;;1.65;100.00;101282.75;4995390;28;20031;-68
2021/12/24 02:00:29;;;;;;;36.13;20.33;;;;;;;2.06;100.00;101295.09;4967504;28;20097;-68
2021/12/24 02:03:15;;;;;;;31.60;18.75;;;;;;;2.32;100.00;101304.34;4994854;28;20064;-68
2021/12/24 02:06:00;;;;;;;30.33;17.98;;;;;;;2.28;100.00;101299.06;4992731;28;20455;-68
2021/12/24 02:08:46;;;;;;;28.02;17.40;;;;;;;2.05;100.00;101290.72;4993350;28;20061;-69
2021/12/24 02:11:37;;;;;;;28.67;17.08;;;;;;;2.25;100.00;101292.09;4993783;28;20049;-68
2021/12/24 02:14:24;;;;;;;26.73;15.98;;;;;;;2.38;100.00;101283.84;4994527;28;20037;-67
2021/12/24 02:17:35;;;;;;;30.55;17.35;;;;;;;2.01;100.00;101275.13;4994231;28;20034;-69
2021/12/24 02:29:37;;;;;;;26.65;16.42;;;;;;;2.28;100.00;101261.16;4993405;28;20034;-71
2021/12/24 02:32:23;;;;;;;31.08;17.45;;;;;;;2.35;100.00;101260.47;4995263;28;20039;-70
2021/12/24 02:35:10;;;;;;;29.08;17.42;;;;;;;2.71;100.00;101252.69;4983017;28;20032;-70
2021/12/24 02:37:56;;;;;;;29.40;16.90;;;;;;;2.62;100.00;101243.00;4997659;28;20094;-70
2021/12/24 02:40:42;;;;;;;29.42;16.95;;;;;;;2.18;100.00;101248.88;4997286;28;20076;-71
2021/12/24 02:43:28;;;;;;;31.15;18.58;;;;;;;2.30;100.00;101245.69;4997694;28;20030;-70
2021/12/24 02:46:27;;;;;;;30.63;18.88;;;;;;;2.62;100.00;101240.41;4997472;28;20487;-70
2021/12/24 02:49:17;;;;;;;30.15;18.48;;;;;;;2.95;100.00;101222.19;4997748;28;20034;-70
2021/12/24 02:55:11;;;;;;;34.65;19.63;;;;;;;2.54;100.00;101229.06;4976462;28;20042;-70
2021/12/24 02:57:58;;;;;;;33.45;19.52;;;;;;;2.56;100.00;101229.06;4996616;28;20043;-70
2021/12/24 03:00:44;;;;;;;32.88;19.55;;;;;;;2.14;100.00;101215.16;4982673;28;20109;-71
2021/12/24 03:03:29;;;;;;;32.80;19.13;;;;;;;1.47;100.00;101214.25;4983578;28;20027;-70
2021/12/24 03:06:16;;;;;;;35.70;20.77;;;;;;;2.06;100.00;101196.88;4996472;28;20109;-71
2021/12/24 03:09:05;;;;;;;32.55;19.33;;;;;;;2.21;100.00;101204.13;4996768;28;20105;-69
2021/12/24 03:11:52;;;;;;;35.58;20.98;;;;;;;1.53;100.00;101194.63;4996379;28;20034;-70
2021/12/24 03:14:38;;;;;;;36.42;20.38;;;;;;;2.30;100.00;101199.16;4984009;28;20034;-70
2021/12/24 03:17:26;;;;;;;35.50;21.40;;;;;;;1.62;100.00;101194.03;4996252;28;20110;-70
2021/12/24 03:20:12;;;;;;;37.03;21.17;;;;;;;1.62;100.00;101183.69;4983443;28;20034;-71
2021/12/24 03:23:22;;;;;;;36.72;20.88;;;;;;;1.77;100.00;101189.25;4996298;28;20089;-70
2021/12/24 03:26:11;;;;;;;36.97;20.52;;;;;;;2.08;100.00;101179.69;4995315;28;20124;-70
2021/12/24 03:28:57;;;;;;;34.60;20.38;;;;;;;2.29;100.00;101169.00;4996254;28;20030;-70
2021/12/24 03:31:44;;;;;;;37.72;21.50;;;;;;;1.67;100.00;101164.91;4996611;28;20022;-70
2021/12/24 03:34:29;;;;;;;37.33;20.55;;;;;;;1.75;100.00;101158.22;4982362;28;20363;-71
2021/12/24 03:37:15;;;;;;;37.70;22.23;;;;;;;2.15;100.00;101168.66;4996559;28;20030;-69
2021/12/24 03:40:03;;;;;;;36.70;21.13;;;;;;;1.26;100.00;101151.75;4997222;28;20121;-70
2021/12/24 03:42:48;;;;;;;37.38;21.23;;;;;;;1.08;100.00;101161.59;4996679;28;20113;-70
2021/12/24 03:45:43;;;;;;;40.95;22.60;;;;;;;1.48;100.00;101151.50;4996059;28;20035;-70
2021/12/24 03:51:49;;;;;;;33.45;20.90;;;;;;;1.57;100.00;101146.56;4995545;28;20026;-70
2021/12/24 03:57:41;;;;;;;37.28;20.90;;;;;;;1.44;100.00;101139.34;4996845;28;20034;-71
2021/12/24 04:00:30;;;;;;;38.15;22.17;;;;;;;1.80;100.00;101133.38;4981924;28;20031;-70
2021/12/24 04:03:17;;;;;;;35.50;21.52;;;;;;;1.67;100.00;101130.44;4982516;28;20051;-71
2021/12/24 04:06:03;;;;;;;38.65;21.95;;;;;;;1.51;100.00;101121.47;4981671;28;20033;-70
2021/12/24 04:08:49;;;;;;;39.83;21.67;;;;;;;1.83;100.00;101124.81;4996854;28;20018;-70
2021/12/24 04:11:38;;;;;;;43.20;24.08;;;;;;;2.03;100.00;101123.56;4995902;28;20026;-70
2021/12/24 04:14:24;;;;;;;41.75;23.27;;;;;;;1.37;100.00;101127.09;4996837;28;20062;-71
2021/12/24 04:17:10;;;;;;;42.28;22.85;;;;;;;1.90;100.00;101134.47;4995802;28;20104;-70
2021/12/24 04:26:17;;;;;;;39.50;23.17;;;;;;;1.45;100.00;101110.09;4994948;28;20037;-70
2021/12/24 04:29:04;;;;;;;39.05;23.45;;;;;;;1.38;100.00;101097.88;4996214;28;20041;-70
2021/12/24 04:32:06;;;;;;;39.60;23.38;;;;;;;0.93;100.00;101099.25;4981421;28;20075;-70
2021/12/24 04:35:02;;;;;;;37.67;22.30;;;;;;;1.35;100.00;101097.78;4995578;28;20018;-71
2021/12/24 05:05:21;;;;;;;46.05;25.33;;;;;;;1.27;100.00;101086.41;4993263;28;20515;-71
2021/12/24 05:10:59;;;;;;;42.95;24.70;;;;;;;1.33;100.00;101074.50;4994883;28;20049;-71
2021/12/24 05:13:45;;;;;;;45.10;25.17;;;;;;;2.12;100.00;101077.25;4993924;28;20030;-71
2021/12/24 05:16:46;;;;;;;40.83;23.77;;;;;;;2.23;100.00;101079.25;4980711;28;20352;-70
2021/12/24 05:22:36;;;;;;;42.03;24.92;;;;;;;1.75;100.00;101085.91;4994060;28;20027;-70
2021/12/24 05:25:22;;;;;;;41.53;24.58;;;;;;;2.01;100.00;101087.34;4981694;28;20026;-71
2021/12/24 05:28:08;;;;;;;45.42;25.67;;;;;;;2.36;100.00;101085.53;4994248;28;20019;-71
2021/12/24 05:30:54;;;;;;;46.95;26.25;;;;;;;2.25;100.00;101082.72;4981754;28;20081;-69
2021/12/24 05:33:40;;;;;;;43.50;25.73;;;;;;;2.42;100.00;101070.16;4995001;28;20474;-70
2021/12/24 05:36:26;;;;;;;44.90;26.63;;;;;;;2.20;100.00;101080.88;4994069;28;20391;-71
2021/12/24 05:39:14;;;;;;;47.97;26.65;;;;;;;2.03;100.00;101070.19;4995505;28;20031;-70
2021/12/24 05:42:00;;;;;;;50.10;28.63;;;;;;;2.47;100.00;101060.78;4980223;28;20037;-71
2021/12/24 05:44:46;;;;;;;46.75;27.45;;;;;;;1.43;100.00;101058.44;4982035;28;20018;-70
2021/12/24 05:47:32;;;;;;;48.42;28.52;;;;;;;1.80;100.00;101055.88;4994613;28;20036;-70
2021/12/24 05:50:18;;;;;;;48.70;26.83;;;;;;;1.87;100.00;101043.97;4980967;28;20037;-71
2021/12/24 05:53:04;;;;;;;46.47;27.65;;;;;;;2.09;100.00;101052.22;4981657;28;20459;-71
2021/12/24 05:55:50;;;;;;;47.45;27.42;;;;;;;2.10;100.00;101053.09;4995420;28;20092;-71
2021/12/24 05:58:35;;;;;;;54.42;28.83;;;;;;;2.34;100.00;101048.47;4993794;28;20093;-72
2021/12/24 06:01:23;;;;;;;46.83;27.58;;;;;;;2.37;100.00;101049.38;4980550;28;20043;-71
2021/12/24 06:04:09;;;;;;;46.92;27.05;;;;;;;2.54;100.00;101052.31;4980944;28;20026;-70
2021/12/24 06:06:55;;;;;;;46.40;27.13;;;;;;;2.44;100.00;101046.09;4980392;28;20023;-71
2021/12/24 06:09:40;;;;;;;49.42;28.33;;;;;;;1.98;100.00;101048.56;4997284;28;20033;-71
2021/12/24 06:12:26;;;;;;;51.25;29.80;;;;;;;2.13;100.00;101048.00;4983429;28;20041;-70
2021/12/24 06:15:12;;;;;;;55.45;29.95;;;;;;;2.17;100.00;101035.16;4998347;28;20057;-72
2021/12/24 06:17:58;;;;;;;52.30;29.83;;;;;;;2.03;100.00;101040.88;4997900;28;20030;-70
2021/12/24 06:20:44;;;;;;;48.05;28.52;;;;;;;2.22;100.00;101033.59;4984867;28;20352;-71
2021/12/24 06:23:31;;;;;;;48.85;28.63;;;;;;;2.34;100.00;101036.41;4984155;28;20037;-71
2021/12/24 06:26:17;;;;;;;52.50;29.33;;;;;;;2.06;100.00;101043.53;4997474;28;20041;-71
2021/12/24 06:29:03;;;;;;;47.42;28.15;;;;;;;2.34;100.00;101033.84;4997964;28;20045;-70
2021/12/24 06:31:50;;;;;;;48.72;27.80;;;;;;;1.97;100.00;101038.19;4996408;28;20136;-70
2021/12/24 06:34:36;;;;;;;49.28;27.88;;;;;;;2.36;100.00;101034.72;4997272;28;20026;-71
2021/12/24 06:37:21;;;;;;;45.83;27.42;;;;;;;2.68;100.00;101036.22;4984595;28;20031;-70
2021/12/24 06:40:08;;;;;;;54.42;29.42;;;;;;;2.09;100.00;101026.38;4997603;28;20033;-71
2021/12/24 06:42:54;;;;;;;46.85;28.20;;;;;;;2.21;100.00;101026.63;4982434;28;20407;-71
2021/12/24 06:45:40;;;;;;;51.42;28.67;;;;;;;2.25;100.00;101032.75;4984277;28;20037;-71
2021/12/24 06:48:26;;;;;;;44.33;26.27;;;;;;;2.19;100.00;101042.97;4997544;28;20037;-71
2021/12/24 06:51:12;;;;;;;46.67;27.05;;;;;;;2.07;100.00;101032.38;4997960;28;20026;-70
2021/12/24 06:53:58;;;;;;;47.00;26.73;;;;;;;2.42;100.00;101029.69;4997306;28;20093;-71
2021/12/24 06:56:45;;;;;;;48.85;27.08;;;;;;;2.17;100.00;101024.84;4996856;28;20034;-71
2021/12/24 06:59:31;;;;;;;45.83;27.17;;;;;;;1.71;100.00;101024.69;4982776;28;20081;-71
2021/12/24 07:02:16;;;;;;;46.45;26.80;;;;;;;1.89;100.00;101013.91;4983119;28;20085;-71
2021/12/24 07:05:03;;;;;;;42.95;24.67;;;;;;;2.08;100.00;101003.97;4997306;28;20058;-71
2021/12/24 07:07:48;;;;;;;41.90;25.08;;;;;;;1.79;100.00;101007.66;4997529;28;20019;-73
2021/12/24 07:10:34;;;;;;;43.88;24.60;;;;;;;2.20;100.00;100993.00;4997320;28;20070;-70
2021/12/24 07:13:20;;;;;;;47.88;26.02;;;;;;;1.83;100.00;100975.88;4995268;28;20030;-71
2021/12/24 07:16:06;;;;;;;39.42;23.25;;;;;;;1.31;100.00;100967.81;4996580;28;20054;-70
2021/12/24 07:18:52;;;;;;;39.63;23.73;;;;;;;1.06;100.00;100967.19;4994949;28;20121;-70
2021/12/24 07:21:38;;;;;;;40.95;24.17;;;;;;;1.84;100.00;100946.63;4997893;28;20023;-70
2021/12/24 07:24:24;;;;;;;42.65;24.58;;;;;;;2.01;100.00;100939.25;4996932;28;20037;-69
2021/12/24 07:27:10;;;;;;;49.95;27.75;;;;;;;1.94;100.00;100945.09;4983295;28;20026;-70
2021/12/24 07:29:56;;;;;;;47.42;27.73;;;;;;;2.32;100.00;100937.25;4996678;28;20026;-71
2021/12/24 07:32:42;;;;;;;49.08;28.45;;;;;;;2.16;100.00;100931.75;4996850;28;20451;-70
2021/12/24 07:35:28;;;;;;;51.67;28.33;;;;;;;2.46;100.00;100922.91;4996169;28;20395;-71
2021/12/24 07:38:14;;;;;;;49.33;28.52;;;;;;;2.54;100.00;100933.38;4983421;28;20443;-72
2021/12/24 07:41:01;;;;;;;53.55;29.17;;;;;;;2.07;100.00;100929.00;4982267;28;20045;-70
2021/12/24 07:43:46;;;;;;;60.70;31.27;;;;;;;2.22;100.00;100931.91;4995400;28;20093;-70
2021/12/24 07:46:41;;;;;;;56.55;31.50;;;;;;;2.38;100.00;100927.06;4996347;28;20022;-70
2021/12/24 07:52:15;;;;;;;56.50;30.92;;;;;;;2.88;100.00;100927.91;4997170;28;20030;-70
2021/12/24 07:55:01;;;;;;;54.78;29.65;;;;;;;3.17;100.00;100918.94;4981892;28;20022;-70
2021/12/24 07:57:50;;;;;;;48.70;27.13;;;;;;;3.32;100.00;100920.00;4981329;28;20447;-71
2021/12/24 08:00:38;;;;;;;42.65;23.67;;;;;;;3.38;100.00;100921.81;4995640;28;20368;-71
2021/12/24 08:03:25;;;;;;;35.97;21.20;;;;;;;2.70;100.00;100922.44;4982524;28;20109;-70
2021/12/24 08:06:11;;;;;;;34.90;20.90;;;;;;;3.28;100.00;100912.16;4981570;28;20428;-70
2021/12/24 08:08:57;;;;;;;33.03;20.17;;;;;;;3.45;100.00;100905.50;4994921;28;20064;-70
2021/12/24 08:11:43;;;;;;;36.92;19.92;;;;;;;3.10;100.00;100891.19;4995760;28;20030;-71
2021/12/24 08:14:28;;;;;;;36.50;21.45;;;;;;;3.38;100.00;100898.53;4996234;28;20036;-70
2021/12/24 08:17:16;;;;;;;37.05;21.17;;;;;;;3.28;100.00;100897.50;4981343;28;20033;-69
2021/12/24 08:20:04;;;;;;;35.53;19.73;;;;;;;3.02;100.00;100904.00;4981948;28;20030;-71
2021/12/24 08:22:51;;;;;;;31.30;18.75;;;;;;;3.26;100.00;100898.34;4995227;28;20447;-70
2021/12/24 08:25:37;;;;;;;33.50;19.52;;;;;;;3.25;100.00;100891.41;4982163;28;20351;-70
2021/12/24 08:28:23;;;;;;;35.38;20.63;;;;;;;3.71;100.00;100901.56;4994375;28;20115;-71
2021/12/24 08:31:09;;;;;;;31.88;19.48;;;;;;;3.52;100.00;100884.91;4995250;28;20030;-70
2021/12/24 08:33:55;;;;;;;33.50;20.05;;;;;;;3.57;100.00;100875.47;4982163;28;20086;-71
2021/12/24 08:36:41;;;;;;;32.08;19.27;;;;;;;3.66;100.00;100866.97;4995687;28;20022;-71
2021/12/24 08:39:27;;;;;;;32.58;19.30;;;;;;;4.10;100.00;100845.03;4995482;28;20069;-70
2021/12/24 08:42:13;;;;;;;33.05;20.55;;;;;;;4.25;100.00;100839.97;4995129;28;20337;-70
2021/12/24 08:44:59;;;;;;;32.72;20.08;;;;;;;4.37;100.00;100847.84;4995655;28;20444;-70
2021/12/24 08:47:45;;;;;;;34.38;20.25;;;;;;;4.50;100.00;100867.84;4979763;28;20398;-71
2021/12/24 08:50:31;;;;;;;37.55;22.08;;;;;;;4.13;100.00;100858.00;4981447;28;20093;-70
2021/12/24 08:53:16;;;;;;;38.15;21.67;;;;;;;4.40;100.00;100851.38;4995618;28;20030;-69
2021/12/24 08:56:02;;;;;;;29.33;19.13;;;;;;;4.55;100.00;100843.69;4995569;28;20022;-70
2021/12/24 08:58:48;;;;;;;37.63;21.50;;;;;;;4.71;100.00;100842.97;4993699;28;20050;-71
2021/12/24 09:01:34;;;;;;;33.85;20.58;;;;;;;4.97;100.00;100836.25;4982022;28;20027;-71
2021/12/24 09:04:21;;;;;;;32.83;21.98;;;;;;;5.13;100.00;100821.66;4979893;28;20033;-71
2021/12/24 09:07:06;;;;;;;36.00;22.23;;;;;;;5.24;100.00;100810.44;4994634;28;20026;-71
2021/12/24 09:09:52;;;;;;;37.63;23.65;;;;;;;5.04;100.00;100809.50;4980777;28;20439;-71
2021/12/24 09:12:39;;;;;;;36.33;23.20;;;;;;;5.48;100.00;100794.97;4994958;28;20120;-71
2021/12/24 09:15:30;;;;;;;38.35;25.55;;;;;;;5.29;100.00;100782.78;4981314;28;20070;-71
2021/12/24 09:18:16;;;;;;;38.38;22.77;;;;;;;4.89;100.00;100777.34;4994730;28;20121;-72
2021/12/24 09:21:03;;;;;;;41.90;23.80;;;;;;;5.12;100.00;100765.38;4995137;28;20038;-70
2021/12/24 09:23:49;;;;;;;42.95;25.02;;;;;;;4.50;100.00;100759.78;4980840;28;20030;-71
2021/12/24 09:26:36;;;;;;;42.72;25.33;;;;;;;4.45;100.00;100758.00;4994965;28;20058;-70
2021/12/24 09:29:24;;;;;;;43.33;25.52;;;;;;;4.71;100.00;100759.94;4994211;28;20030;-70
2021/12/24 09:32:10;;;;;;;39.55;25.02;;;;;;;4.47;100.00;100754.56;4995536;28;20026;-73
2021/12/24 09:34:57;;;;;;;38.60;24.25;;;;;;;4.29;100.00;100745.78;4979836;28;20030;-70
2021/12/24 09:37:42;;;;;;;37.75;23.75;;;;;;;4.85;100.00;100750.53;4994736;28;20030;-71
2021/12/24 09:40:29;;;;;;;39.72;24.02;;;;;;;4.49;100.00;100726.06;4994768;28;20407;-70
2021/12/24 09:43:15;;;;;;;44.20;22.73;;;;;;;4.66;100.00;100727.91;4983771;28;20045;-69
2021/12/24 09:46:00;;;;;;;47.22;25.63;;;;;;;4.84;100.00;100709.88;4998400;28;20073;-73
2021/12/24 09:48:46;;;;;;;40.20;22.90;;;;;;;4.63;100.00;100701.94;4999278;28;20456;-71
2021/12/24 09:51:37;;;;;;;41.42;21.77;;;;;;;5.06;100.00;100687.44;4998756;28;20030;-70
2021/12/24 09:54:25;;;;;;;37.83;21.65;;;;;;;5.54;100.00;100666.81;4983516;28;20105;-71
2021/12/24 09:57:10;;;;;;;36.85;21.60;;;;;;;5.23;100.00;100667.63;4998671;28;20034;-71
2021/12/24 09:59:56;;;;;;;34.97;20.80;;;;;;;4.93;100.00;100649.31;4998331;28;20439;-71
2021/12/24 10:02:47;;;;;;;32.15;19.45;;;;;;;4.55;100.00;100658.66;4999525;28;20022;-71
2021/12/24 10:05:35;;;;;;;33.85;20.23;;;;;;;4.88;100.00;100653.63;4984002;28;20030;-71
2021/12/24 10:08:24;;;;;;;36.28;20.42;;;;;;;5.07;100.00;100642.47;4998527;28;20424;-71
2021/12/24 10:11:12;;;;;;;34.92;21.60;;;;;;;5.17;100.00;100642.50;4997742;28;20022;-71
2021/12/24 10:14:05;;;;;;;36.40;21.08;;;;;;;5.36;100.00;100638.22;4997806;28;20363;-71
2021/12/24 10:16:52;;;;;;;35.47;20.65;;;;;;;5.50;100.00;100643.44;4983434;28;20037;-70
2021/12/24 10:19:47;;;;;;;35.58;21.17;;;;;;;5.73;100.00;100639.13;4998220;28;20030;-70
2021/12/24 10:22:45;;;;;;;37.17;20.80;;;;;;;5.53;100.00;100635.63;4984837;28;20558;-70
2021/12/24 10:25:31;;;;;;;41.28;22.73;;;;;;;5.87;100.00;100624.44;4998876;28;20375;-70
2021/12/24 10:28:16;;;;;;;31.33;20.40;;;;;;;6.10;100.00;100620.94;4998045;28;20030;-72
2021/12/24 10:31:02;;;;;;;33.95;21.13;;;;;;;6.41;100.00;100624.38;4983672;28;20447;-70
2021/12/24 10:34:05;;;;;;;32.97;20.77;;;;;;;6.62;100.00;100617.38;4983875;28;20072;-71
2021/12/24 10:36:53;;;;;;;32.13;20.65;;;;;;;6.99;100.00;100610.28;4995832;28;20031;-70
2021/12/24 10:39:51;;;;;;;32.65;20.60;;;;;;;7.05;100.00;100600.72;4996914;28;20416;-71
2021/12/24 10:42:40;;;;;;;30.98;20.13;;;;;;;6.69;100.00;100595.66;4998057;28;20029;-71
2021/12/24 10:45:26;;;;;;;31.58;20.02;;;;;;;6.30;100.00;100579.31;4997994;28;20124;-70
2021/12/24 10:48:20;;;;;;;35.42;21.27;;;;;;;7.30;100.00;100570.16;4983081;28;20372;-70
2021/12/24 10:51:09;;;;;;;35.13;21.63;;;;;;;7.98;100.00;100550.47;4995994;28;20463;-71
2021/12/24 10:54:05;;;;;;;31.48;20.58;;;;;;;7.81;100.00;100572.38;4997182;28;20050;-70
2021/12/24 10:56:52;;;;;;;30.75;20.40;;;;;;;8.16;100.00;100562.47;4996803;28;20026;-71
2021/12/24 10:59:45;;;;;;;29.48;20.52;;;;;;;8.12;100.00;100563.38;4983459;28;20062;-71
2021/12/24 11:02:35;;;;;;;31.45;19.67;;;;;;;8.05;100.00;100548.66;4985350;28;20022;-71
2021/12/24 11:05:31;;;;;;;30.58;19.23;;;;;;;8.72;100.00;100544.44;4999390;28;20111;-71
2021/12/24 11:08:22;;;;;;;35.58;23.83;;;;;;;8.83;100.00;100540.81;4983803;28;20022;-70
2021/12/24 11:11:11;;;;;;;35.13;22.10;;;;;;;9.11;100.00;100534.31;4997763;28;20460;-70
2021/12/24 11:13:57;;;;;;;32.50;21.50;;;;;;;9.06;100.00;100540.47;4997495;28;20057;-70
2021/12/24 11:16:45;;;;;;;28.13;18.90;;;;;;;9.86;100.00;100530.44;4981441;28;20026;-68
2021/12/24 11:19:51;;;;;;;27.42;19.17;;;;;;;10.17;100.00;100528.19;4997333;28;20033;-72
2021/12/24 11:22:58;;;;;;;31.80;20.45;;;;;;;9.86;100.00;100511.28;4995899;28;20439;-70
2021/12/24 11:25:48;;;;;;;27.58;18.27;;;;;;;9.63;100.00;100498.63;4982666;28;20076;-70
2021/12/24 11:28:35;;;;;;;24.17;17.17;;;;;;;9.67;100.00;100494.19;4996885;28;20403;-70
2021/12/24 11:31:23;;;;;;;26.95;17.63;;;;;;;9.73;100.00;100494.09;4996994;28;20057;-71
2021/12/24 11:34:10;;;;;;;26.77;17.23;;;;;;;9.35;100.00;100499.09;4983243;28;20041;-70
2021/12/24 11:36:56;;;;;;;27.10;17.33;;;;;;;9.37;100.00;100510.41;4983270;28;20030;-70
2021/12/24 11:39:42;;;;;;;27.52;17.70;;;;;;;9.74;100.00;100504.50;4995578;28;20419;-71
2021/12/24 11:42:32;;;;;;;25.38;16.92;;;;;;;10.16;100.00;100508.13;4996241;28;20030;-71
2021/12/24 11:45:22;;;;;;;26.85;17.77;;;;;;;9.83;100.00;100512.22;4996950;28;20406;-70
2021/12/24 11:48:08;;;;;;;30.92;16.45;;;;;;;10.53;100.00;100508.28;4996420;28;20169;-72
2021/12/24 11:50:54;;;;;;;28.00;17.73;;;;;;;10.35;100.00;100511.25;4983026;28;20137;-73
2021/12/24 11:53:44;;;;;;;26.75;17.23;;;;;;;10.19;100.00;100513.31;4996285;28;20105;-71
2021/12/24 11:56:53;;;;;;;26.92;18.38;;;;;;;9.95;100.00;100525.06;4996179;28;20062;-70
2021/12/24 11:59:40;;;;;;;29.63;20.15;;;;;;;10.58;100.00;100514.28;4982345;28;20050;-72
2021/12/24 12:02:41;;;;;;;28.20;19.15;;;;;;;10.17;100.00;100504.63;4996401;28;20030;-71
2021/12/24 12:05:36;;;;;;;26.65;18.55;;;;;;;10.12;100.00;100498.59;4981819;28;20042;-71
2021/12/24 12:08:25;;;;;;;27.83;18.42;;;;;;;9.77;100.00;100496.59;4996126;28;20026;-71
2021/12/24 12:11:13;;;;;;;29.83;18.77;;;;;;;10.37;100.00;100494.59;4994838;28;20031;-71
2021/12/24 12:14:25;;;;;;;29.95;18.33;;;;;;;10.53;100.00;100482.09;4994516;28;20026;-70
2021/12/24 12:17:23;;;;;;;28.83;17.83;;;;;;;10.28;100.00;100494.78;4995542;28;20041;-72
2021/12/24 12:20:16;;;;;;;26.02;18.05;;;;;;;10.47;100.00;100496.16;4996060;28;20353;-71
2021/12/24 12:23:02;;;;;;;29.83;19.52;;;;;;;10.10;100.00;100495.16;4982131;28;20041;-70
2021/12/24 12:25:48;;;;;;;26.60;17.67;;;;;;;10.18;100.00;100496.72;4996051;28;20034;-71
2021/12/24 12:28:34;;;;;;;27.00;17.85;;;;;;;10.16;100.00;100502.88;4994081;28;20049;-73
2021/12/24 12:31:21;;;;;;;25.77;17.60;;;;;;;10.05;100.00;100505.72;4996169;28;20040;-70
2021/12/24 12:34:34;;;;;;;26.83;17.40;;;;;;;10.22;100.00;100494.94;4979667;28;20367;-70
2021/12/24 12:37:42;;;;;;;28.02;17.35;;;;;;;10.35;100.00;100498.16;4993682;28;20105;-71
2021/12/24 12:40:32;;;;;;;22.95;16.33;;;;;;;10.55;100.00;100493.38;4996066;28;20121;-71
2021/12/24 12:43:20;;;;;;;25.98;17.40;;;;;;;10.32;100.00;100500.84;4996009;28;20026;-71
2021/12/24 12:46:06;;;;;;;27.63;19.05;;;;;;;10.17;100.00;100499.41;4982357;28;20030;-70
2021/12/24 12:48:54;;;;;;;29.23;18.73;;;;;;;10.41;100.00;100488.41;4993896;28;20118;-71
2021/12/24 12:51:56;;;;;;;29.50;18.98;;;;;;;10.23;100.00;100487.91;4981915;28;20033;-73
2021/12/24 12:54:52;;;;;;;27.92;18.52;;;;;;;10.06;100.00;100480.41;4996283;28;20037;-71
2021/12/24 12:57:38;;;;;;;31.58;18.73;;;;;;;10.19;100.00;100484.50;4995294;28;20113;-72
2021/12/24 13:00:27;;;;;;;30.65;18.77;;;;;;;9.94;100.00;100485.84;4994720;28;20137;-71
2021/12/24 13:03:14;;;;;;;27.95;19.42;;;;;;;10.29;100.00;100480.81;4994778;28;20037;-72
2021/12/24 13:06:06;;;;;;;28.13;19.50;;;;;;;10.45;100.00;100473.53;4980775;28;20026;-70
2021/12/24 13:09:04;;;;;;;33.22;20.00;;;;;;;10.64;100.00;100487.97;4997254;28;20049;-69
2021/12/24 13:11:53;;;;;;;29.48;20.15;;;;;;;10.30;100.00;100472.09;4994590;28;20026;-71
2021/12/24 13:14:39;;;;;;;28.95;20.35;;;;;;;10.05;100.00;100478.69;4994839;28;20038;-72
2021/12/24 13:17:32;;;;;;;30.33;20.70;;;;;;;10.49;100.00;100486.50;4980146;28;20039;-71
2021/12/24 13:20:33;;;;;;;34.25;21.55;;;;;;;10.69;100.00;100480.84;4994452;28;20117;-71
2021/12/24 13:23:20;;;;;;;30.55;19.95;;;;;;;10.09;100.00;100486.44;4993723;28;20018;-72
2021/12/24 13:26:19;;;;;;;26.45;19.13;;;;;;;10.26;100.00;100480.03;4980843;28;20097;-71
2021/12/24 13:29:13;;;;;;;28.25;17.75;;;;;;;10.31;100.00;100472.91;4993658;28;20162;-70
2021/12/24 13:31:59;;;;;;;29.30;18.45;;;;;;;10.58;100.00;100473.25;4993880;28;20049;-72
2021/12/24 13:34:55;;;;;;;25.95;17.92;;;;;;;10.54;100.00;100470.69;4993131;28;20130;-71
2021/12/24 13:37:45;;;;;;;27.20;17.33;;;;;;;10.49;100.00;100468.16;4980552;28;20030;-69
2021/12/24 13:40:34;;;;;;;23.75;16.15;;;;;;;10.63;100.00;100467.88;4994971;28;20034;-72
2021/12/24 13:43:20;;;;;;;23.67;16.60;;;;;;;10.78;100.00;100472.78;4995945;28;20037;-70
2021/12/24 13:46:10;;;;;;;23.42;16.40;;;;;;;10.92;100.00;100471.59;4981276;28;20053;-71
2021/12/24 13:54:53;;;;;;;24.75;16.55;;;;;;;11.20;100.00;100477.03;4993698;28;20027;-71
2021/12/24 13:57:39;;;;;;;25.33;16.17;;;;;;;11.27;100.00;100473.38;4981065;28;20121;-72
2021/12/24 14:00:27;;;;;;;27.08;16.13;;;;;;;11.17;100.00;100467.47;4995042;28;20030;-71
2021/12/24 14:03:14;;;;;;;24.42;16.35;;;;;;;11.07;100.00;100458.13;4994364;28;20030;-71
2021/12/24 14:06:03;;;;;;;27.08;17.13;;;;;;;11.10;100.00;100460.69;4980353;28;20060;-72
2021/12/24 14:08:48;;;;;;;27.38;18.45;;;;;;;10.88;100.00;100464.69;4994237;28;20070;-71
2021/12/24 14:11:36;;;;;;;26.15;18.05;;;;;;;10.94;100.00;100456.69;4995019;28;20093;-71
2021/12/24 14:20:37;;;;;;;27.48;17.65;;;;;;;10.80;100.00;100461.38;4994202;28;20038;-71
2021/12/24 14:23:23;;;;;;;30.23;18.45;;;;;;;10.77;100.00;100460.59;4993897;28;20065;-72